createdAt,value
2022-09-22T00:00:14.899Z,95.10
2022-09-22T00:03:02.523Z,95.20
2022-09-22T00:06:28.784Z,95.20
2022-09-22T00:09:15.505Z,95.30
2022-09-22T00:11:51.607Z,95.50
2022-09-22T00:14:38.113Z,95.60
2022-09-22T00:17:40.827Z,95.30
2022-09-22T00:20:36.053Z,95.20
2022-09-22T00:23:21.965Z,95.00
2022-09-22T00:26:53.354Z,95.30
2022-09-22T00:29:32.916Z,95.50
2022-09-22T00:32:14.141Z,95.20
2022-09-22T00:34:54.477Z,95.10
2022-09-22T00:37:30.671Z,95.30
2022-09-22T00:40:06.005Z,95.60
2022-09-22T00:42:47.640Z,95.50
2022-09-22T00:45:25.588Z,95.50
2022-09-22T00:48:07.813Z,95.20
2022-09-22T00:50:51.594Z,95.80
2022-09-22T00:56:24.128Z,95.80
2022-09-22T00:59:07.197Z,95.40
2022-09-22T01:01:43.746Z,95.50
2022-09-22T01:04:19.765Z,95.60
2022-09-22T01:07:01.837Z,95.80
2022-09-22T01:09:37.420Z,95.20
2022-09-22T01:12:14.260Z,95.30
2022-09-22T01:15:07.934Z,95.30
2022-09-22T01:18:01.385Z,95.40
2022-09-22T01:21:13.698Z,95.10
2022-09-22T01:24:18.121Z,95.20
2022-09-22T01:27:12.523Z,95.50
2022-09-22T01:30:27.266Z,95.40
2022-09-22T01:33:23.800Z,95.50
2022-09-22T01:36:16.583Z,95.40
2022-09-22T01:39:03.885Z,95.60
2022-09-22T01:41:58.417Z,95.60
2022-09-22T01:45:12.658Z,95.70
2022-09-22T01:47:50.948Z,95.80
2022-09-22T01:50:30.289Z,95.50
2022-09-22T01:53:24.769Z,95.90
2022-09-22T01:56:23.927Z,95.60
2022-09-22T01:59:09.654Z,95.70
2022-09-22T02:01:57.477Z,95.60
2022-09-22T02:04:35.896Z,95.60
2022-09-22T02:07:16.166Z,95.60
2022-09-22T02:10:01.242Z,95.70
2022-09-22T02:12:38.074Z,95.50
2022-09-22T02:15:28.345Z,95.50
2022-09-22T02:18:06.948Z,96.20
2022-09-22T02:20:42.099Z,95.60
2022-09-22T02:23:26.156Z,96.10
2022-09-22T02:26:08.634Z,95.40
2022-09-22T02:28:50.398Z,95.50
2022-09-22T02:31:38.652Z,95.70
2022-09-22T02:37:23.955Z,95.70
2022-09-22T02:40:12.099Z,95.50
2022-09-22T02:42:51.467Z,95.50
2022-09-22T02:45:40.431Z,95.40
2022-09-22T02:48:53.109Z,95.50
2022-09-22T02:51:31.711Z,95.50
2022-09-22T02:54:07.132Z,95.30
2022-09-22T02:56:43.499Z,95.40
2022-09-22T02:59:21.694Z,95.20
2022-09-22T03:02:01.278Z,95.30
2022-09-22T03:04:39.133Z,95.10
2022-09-22T03:07:13.750Z,95.40
2022-09-22T03:10:12.141Z,95.80
2022-09-22T03:13:50.013Z,95.60
2022-09-22T03:16:50.647Z,95.50
2022-09-22T03:19:36.039Z,95.50
2022-09-22T03:22:13.305Z,95.60
2022-09-22T03:24:48.902Z,95.80
2022-09-22T03:27:23.956Z,95.80
2022-09-22T03:29:59.313Z,96.40
2022-09-22T03:35:53.817Z,95.70
2022-09-22T03:38:30.711Z,95.60
2022-09-22T03:41:05.314Z,96.00
2022-09-22T03:43:40.111Z,95.60
2022-09-22T03:46:33.807Z,95.40
2022-09-22T03:49:13.694Z,95.20
2022-09-22T03:51:58.397Z,95.30
2022-09-22T03:55:07.063Z,96.30
2022-09-22T04:00:49.424Z,95.60
2022-09-22T04:03:24.973Z,95.30
2022-09-22T04:06:49.189Z,95.50
2022-09-22T04:09:53.982Z,95.40
2022-09-22T04:12:31.527Z,95.50
2022-09-22T04:18:41.207Z,95.40
2022-09-22T04:21:19.024Z,95.30
2022-09-22T04:23:55.420Z,95.30
2022-09-22T04:26:31.764Z,95.60
2022-09-22T04:29:44.271Z,96.30
2022-09-22T04:32:31.345Z,95.60
2022-09-22T04:38:53.452Z,95.20
2022-09-22T04:41:31.073Z,95.40
2022-09-22T04:44:06.774Z,95.60
2022-09-22T04:46:46.761Z,95.50
2022-09-22T04:49:25.298Z,96.30
2022-09-22T04:52:04.999Z,96.50
2022-09-22T04:54:43.665Z,96.00
2022-09-22T04:57:26.886Z,96.20
2022-09-22T05:00:01.164Z,95.40
2022-09-22T05:02:37.715Z,96.10
2022-09-22T05:08:10.405Z,95.90
2022-09-22T05:10:57.354Z,95.70
2022-09-22T05:13:34.578Z,95.60
2022-09-22T05:22:05.156Z,95.70
2022-09-22T05:25:44.067Z,95.70
2022-09-22T05:31:28.695Z,94.80
2022-09-22T05:34:03.287Z,95.60
2022-09-22T05:36:42.995Z,95.70
2022-09-22T05:39:18.180Z,95.00
2022-09-22T05:42:26.690Z,95.60
2022-09-22T05:45:16.278Z,94.90
2022-09-22T05:47:51.580Z,95.00
2022-09-22T05:50:26.742Z,95.80
2022-09-22T05:53:18.893Z,96.10
2022-09-22T06:00:01.559Z,95.50
2022-09-22T06:03:00.666Z,95.60
2022-09-22T06:09:24.897Z,96.10
2022-09-22T06:11:59.723Z,96.40
2022-09-22T06:14:51.186Z,96.30
2022-09-22T06:20:20.265Z,96.50
2022-09-22T06:23:15.028Z,96.40
2022-09-22T06:28:39.186Z,96.80
2022-09-22T06:35:12.982Z,96.70
2022-09-22T06:38:24.602Z,96.60
2022-09-22T06:41:07.662Z,96.80
2022-09-22T06:43:43.967Z,96.90
2022-09-22T06:47:04.055Z,96.80
2022-09-22T06:49:42.343Z,96.70
2022-09-22T06:55:25.802Z,96.80
2022-09-22T06:58:03.819Z,96.70
2022-09-22T07:00:42.235Z,96.70
2022-09-22T07:03:22.617Z,96.70
2022-09-22T07:06:04.197Z,96.50
2022-09-22T07:08:55.713Z,96.70
2022-09-22T07:11:40.267Z,96.30
2022-09-22T07:14:42.196Z,96.50
2022-09-22T07:17:37.471Z,96.90
2022-09-22T07:20:15.903Z,96.50
2022-09-22T07:23:01.149Z,96.50
2022-09-22T07:25:36.746Z,96.30
2022-09-22T07:28:25.249Z,96.60
2022-09-22T07:31:18.245Z,95.90
2022-09-22T07:34:23.039Z,95.90
2022-09-22T07:37:53.275Z,95.30
2022-09-22T07:40:44.320Z,96.50
2022-09-22T07:43:30.823Z,96.50
2022-09-22T07:46:06.797Z,96.30
2022-09-22T07:48:48.511Z,95.70
2022-09-22T07:51:27.282Z,96.20
2022-09-22T07:54:10.547Z,96.20
2022-09-22T07:56:47.070Z,95.40
2022-09-22T07:59:43.986Z,94.60
2022-09-22T08:05:20.037Z,94.40
2022-09-22T08:07:57.482Z,95.40
2022-09-22T08:10:37.143Z,93.70
2022-09-22T08:13:14.411Z,94.80
2022-09-22T08:15:58.343Z,95.00
2022-09-22T08:18:40.153Z,95.20
2022-09-22T08:21:27.971Z,95.60
2022-09-22T08:24:25.010Z,93.80
2022-09-22T08:29:49.670Z,95.10
2022-09-22T08:32:31.028Z,94.80
2022-09-22T08:35:10.031Z,94.90
2022-09-22T08:37:55.486Z,94.60
2022-09-22T08:40:56.515Z,95.10
2022-09-22T08:43:49.114Z,94.70
2022-09-22T08:46:30.501Z,94.50
2022-09-22T08:49:25.061Z,93.30
2022-09-22T08:52:08.164Z,94.50
2022-09-22T08:54:50.803Z,94.80
2022-09-22T08:57:50.889Z,94.80
2022-09-22T09:00:28.723Z,93.90
2022-09-22T09:03:23.256Z,95.00
2022-09-22T09:06:16.582Z,94.20
2022-09-22T09:09:07.577Z,93.20
2022-09-22T09:12:07.662Z,93.90
2022-09-22T09:15:03.319Z,94.00
2022-09-22T09:17:51.567Z,93.90
2022-09-22T09:20:37.157Z,93.20
2022-09-22T09:25:22.149Z,93.10
2022-09-22T09:26:24.623Z,92.40
2022-09-22T09:29:04.970Z,92.80
2022-09-22T09:31:55.766Z,92.30
2022-09-22T09:35:19.868Z,91.50
2022-09-22T09:38:07.224Z,92.00
2022-09-22T09:41:12.607Z,92.10
2022-09-22T09:43:53.314Z,92.80
2022-09-22T09:46:42.976Z,92.80
2022-09-22T09:49:20.599Z,92.00
2022-09-22T09:52:03.160Z,91.60
2022-09-22T09:54:54.590Z,91.10
2022-09-22T10:01:26.108Z,91.10
2022-09-22T10:08:24.753Z,90.30
2022-09-22T10:14:55.868Z,88.10
2022-09-22T10:17:49.197Z,89.60
2022-09-22T10:20:34.117Z,89.60
2022-09-22T10:23:24.255Z,89.00
2022-09-22T10:26:20.302Z,88.50
2022-09-22T10:33:30.129Z,88.70
2022-09-22T10:40:08.854Z,88.20
2022-09-22T10:43:48.934Z,87.20
2022-09-22T10:54:28.610Z,86.00
2022-09-22T11:01:14.342Z,84.50
2022-09-22T11:23:19.051Z,81.40
2022-09-22T11:33:44.147Z,83.50
2022-09-22T11:39:32.807Z,83.00
2022-09-22T11:42:33.648Z,82.50
2022-09-22T11:49:11.354Z,82.30
2022-09-22T11:52:11.729Z,80.10
2022-09-22T11:55:19.149Z,79.20
2022-09-22T12:01:44.519Z,80.30
2022-09-22T12:12:18.583Z,78.40
2022-09-22T12:15:49.172Z,77.00
2022-09-22T12:19:23.721Z,79.10
2022-09-22T12:38:11.910Z,78.40
2022-09-22T12:48:43.417Z,74.70
2022-09-22T12:51:56.926Z,77.90
2022-09-22T12:54:52.851Z,78.80
2022-09-22T13:00:56.480Z,78.50
2022-09-22T13:11:50.161Z,78.00
2022-09-22T13:32:30.574Z,76.30
2022-09-22T13:46:12.247Z,74.40
2022-09-22T13:49:27.939Z,75.60
2022-09-22T13:52:19.385Z,75.60
2022-09-22T13:55:33.522Z,75.30
2022-09-22T13:58:25.623Z,75.00
2022-09-22T14:01:39.760Z,72.50
2022-09-22T14:04:58.026Z,75.40
2022-09-22T14:08:11.657Z,72.40
2022-09-22T14:10:54.048Z,74.90
2022-09-22T14:13:58.953Z,75.00
2022-09-22T14:31:15.381Z,72.80
2022-09-22T14:33:49.553Z,74.80
2022-09-22T14:36:26.397Z,74.50
2022-09-22T14:39:09.905Z,75.70
2022-09-22T14:41:51.415Z,73.70
2022-09-22T14:44:46.179Z,74.70
2022-09-22T14:47:28.199Z,71.60
2022-09-22T14:50:14.429Z,74.50
2022-09-22T14:52:55.141Z,75.50
2022-09-22T14:55:34.192Z,75.10
2022-09-22T14:58:13.094Z,77.20
2022-09-22T15:01:15.213Z,74.90
2022-09-22T15:03:57.051Z,75.30
2022-09-22T15:06:39.210Z,74.40
2022-09-22T15:09:23.126Z,72.40
2022-09-22T15:12:00.768Z,75.10
2022-09-22T15:14:45.759Z,76.40
2022-09-22T15:17:56.978Z,76.70
2022-09-22T15:31:40.667Z,76.00
2022-09-22T15:38:19.881Z,77.60
2022-09-22T15:40:56.277Z,76.20
2022-09-22T15:47:40.244Z,75.20
2022-09-22T15:51:05.125Z,76.60
2022-09-22T15:53:47.148Z,75.00
2022-09-22T15:56:26.202Z,78.20
2022-09-22T15:59:19.844Z,78.00
2022-09-22T16:05:40.885Z,78.30
2022-09-22T16:08:38.729Z,78.50
2022-09-22T16:14:32.479Z,77.30
2022-09-22T16:21:37.868Z,78.80
2022-09-22T16:24:59.195Z,79.50
2022-09-22T16:27:57.145Z,80.20
2022-09-22T16:30:36.575Z,80.40
2022-09-22T16:43:47.905Z,81.10
2022-09-22T16:46:34.064Z,81.20
2022-09-22T16:49:12.719Z,81.60
2022-09-22T16:52:48.048Z,81.40
2022-09-22T16:55:23.101Z,82.10
2022-09-22T16:58:09.263Z,82.30
2022-09-22T17:00:46.355Z,82.10
2022-09-22T17:03:21.469Z,83.90
2022-09-22T17:06:06.600Z,82.90
2022-09-22T17:08:44.025Z,83.60
2022-09-22T17:11:21.685Z,84.90
2022-09-22T17:13:57.003Z,82.60
2022-09-22T17:16:35.584Z,83.30
2022-09-22T17:19:17.471Z,84.00
2022-09-22T17:21:59.010Z,85.20
2022-09-22T17:24:34.569Z,83.90
2022-09-22T17:27:10.340Z,84.70
2022-09-22T17:29:45.254Z,85.30
2022-09-22T17:32:28.240Z,85.90
2022-09-22T17:35:18.391Z,85.60
2022-09-22T17:37:55.377Z,86.40
2022-09-22T18:03:57.916Z,89.00
2022-09-22T18:07:41.484Z,88.90
2022-09-22T18:14:49.044Z,89.40
2022-09-22T18:51:24.396Z,91.00
2022-09-22T18:54:29.178Z,91.10
2022-09-22T18:57:06.778Z,91.20
2022-09-22T18:59:42.408Z,91.70
2022-09-22T19:02:23.428Z,92.60
2022-09-22T19:13:02.042Z,92.00
2022-09-22T19:15:40.199Z,92.60
2022-09-22T19:18:25.368Z,92.90
2022-09-22T19:24:55.684Z,91.90
2022-09-22T19:27:40.150Z,92.90
2022-09-22T19:37:43.551Z,92.70
2022-09-22T19:40:25.437Z,93.10
2022-09-22T19:43:07.488Z,92.60
2022-09-22T19:45:51.846Z,93.30
2022-09-22T19:48:27.120Z,92.50
2022-09-22T19:51:38.418Z,93.40
2022-09-22T19:54:17.369Z,92.60
2022-09-22T19:56:56.592Z,92.80
2022-09-22T20:20:54.281Z,93.20
2022-09-22T20:23:33.409Z,93.00
2022-09-22T20:26:14.996Z,93.20
2022-09-22T20:29:06.051Z,93.10
2022-09-22T20:31:41.530Z,93.10
2022-09-22T20:34:29.515Z,93.60
2022-09-22T20:37:45.928Z,93.50
2022-09-22T20:40:41.948Z,93.20
2022-09-22T20:43:56.429Z,93.50
2022-09-22T20:47:05.270Z,93.50
2022-09-22T20:49:52.179Z,93.50
2022-09-22T20:52:40.762Z,93.70
2022-09-22T21:06:05.592Z,93.30
2022-09-22T21:09:07.798Z,93.70
2022-09-22T21:11:42.104Z,94.00
2022-09-22T21:14:19.173Z,94.10
2022-09-22T21:20:08.483Z,93.80
2022-09-22T21:22:51.269Z,94.00
2022-09-22T21:26:15.236Z,94.00
2022-09-22T21:33:12.593Z,94.30
2022-09-22T21:35:47.197Z,94.70
2022-09-22T22:03:10.810Z,94.50
2022-09-22T22:05:48.502Z,94.50
2022-09-22T22:09:19.385Z,94.90
2022-09-22T22:12:14.379Z,94.90
2022-09-22T22:14:50.613Z,94.90
2022-09-22T22:17:31.286Z,95.40
2022-09-22T22:20:07.135Z,95.00
2022-09-22T22:22:47.052Z,94.90
2022-09-22T22:29:16.093Z,95.00
2022-09-22T22:31:58.637Z,94.60
2022-09-22T22:34:34.312Z,95.30
2022-09-22T22:37:15.053Z,95.00
2022-09-22T22:43:49.251Z,94.90
2022-09-22T22:50:12.803Z,95.10
2022-09-22T22:56:44.344Z,95.20
2022-09-22T22:59:57.295Z,95.30
2022-09-22T23:02:33.073Z,95.40
2022-09-22T23:05:15.532Z,95.30
2022-09-22T23:07:50.438Z,94.90
2022-09-22T23:14:18.413Z,95.20
2022-09-22T23:20:42.088Z,95.20
2022-09-22T23:27:09.809Z,95.10
2022-09-22T23:29:45.736Z,95.30
2022-09-22T23:32:32.570Z,95.40
2022-09-22T23:35:09.291Z,95.50
2022-09-22T23:38:20.419Z,95.40
2022-09-22T23:40:54.917Z,95.50
2022-09-22T23:43:31.923Z,95.40
2022-09-22T23:46:31.182Z,95.40
2022-09-22T23:49:14.861Z,95.60
2022-09-22T23:51:56.757Z,95.50
2022-09-22T23:54:35.080Z,95.30
2022-09-22T23:57:09.403Z,95.20
2022-09-22T23:59:44.198Z,95.50
